Time;durP1;ratioP1;P1;durP2;ratioP2;P2;SDS_P1;SDS_P2;PMS_P1;PMS_P2;Temp;Humidity;BMP_temperature;BMP_pressure;BME280_temperature;BME280_humidity;BME280_pressure;Samples;Min_cycle;Max_cycle;Signal;HPM_P1;HPM_P2
2024/03/15 00:00:58;;;;;;;30.13;18.30;;;;;;;5.96;84.15;100465.63;5033007;28;20205;-69
2024/03/15 00:03:26;;;;;;;28.27;17.50;;;;;;;5.94;83.92;100464.78;5030436;28;20261;-65
2024/03/15 00:05:56;;;;;;;29.13;17.67;;;;;;;5.97;84.74;100467.38;5031599;28;20269;-64
2024/03/15 00:08:24;;;;;;;27.17;16.63;;;;;;;5.96;83.94;100466.47;5032642;28;21003;-65
2024/03/15 00:10:52;;;;;;;27.60;17.67;;;;;;;5.94;83.91;100468.19;5030166;28;20206;-65
2024/03/15 00:13:20;;;;;;;29.70;17.43;;;;;;;5.91;83.68;100465.53;5030956;28;20199;-65
2024/03/15 00:15:47;;;;;;;26.73;17.13;;;;;;;5.89;83.94;100456.13;5030321;28;20611;-66
2024/03/15 00:18:17;;;;;;;25.67;16.07;;;;;;;5.84;83.88;100445.84;5031401;28;20203;-68
2024/03/15 00:20:45;;;;;;;28.57;17.23;;;;;;;5.80;83.90;100450.03;5030533;28;20198;-65
2024/03/15 00:23:13;;;;;;;28.93;16.53;;;;;;;5.77;84.39;100444.88;5031458;28;20202;-65
2024/03/15 00:25:42;;;;;;;27.87;16.87;;;;;;;5.75;84.39;100440.59;5030545;28;20625;-65
2024/03/15 00:28:10;;;;;;;27.00;17.57;;;;;;;5.74;84.58;100449.97;5029820;28;20289;-67
2024/03/15 00:30:40;;;;;;;33.30;17.50;;;;;;;5.72;84.67;100438.84;5030206;28;20653;-66
2024/03/15 00:33:09;;;;;;;28.63;17.37;;;;;;;5.70;84.75;100437.09;5030310;28;20214;-66
2024/03/15 00:35:37;;;;;;;26.10;16.70;;;;;;;5.67;84.93;100439.59;5031641;28;20305;-67
2024/03/15 00:38:05;;;;;;;27.43;16.83;;;;;;;5.64;84.93;100437.88;5031645;28;20676;-66
2024/03/15 00:40:33;;;;;;;29.40;17.60;;;;;;;5.63;85.29;100436.16;5029469;28;20223;-64
2024/03/15 00:43:03;;;;;;;28.93;18.13;;;;;;;5.60;85.19;100440.34;5031483;28;20641;-64
2024/03/15 00:45:30;;;;;;;31.40;18.53;;;;;;;5.55;84.78;100428.38;5031858;28;20607;-63
2024/03/15 00:48:01;;;;;;;30.97;18.07;;;;;;;5.54;84.72;100436.88;5029513;28;20209;-63
2024/03/15 00:50:30;;;;;;;29.13;17.87;;;;;;;5.51;85.53;100430.88;5031322;28;20240;-63
2024/03/15 00:53:00;;;;;;;27.70;17.40;;;;;;;5.50;85.72;100427.44;5028689;28;20207;-63
2024/03/15 00:55:30;;;;;;;30.53;18.47;;;;;;;5.50;85.18;100429.16;5030310;28;20606;-66
2024/03/15 00:57:59;;;;;;;26.90;16.67;;;;;;;5.49;85.66;100427.44;5030614;28;20213;-65
2024/03/15 01:00:28;;;;;;;28.53;18.10;;;;;;;5.47;85.69;100419.72;5031316;28;20214;-64
2024/03/15 01:02:57;;;;;;;32.63;18.37;;;;;;;5.43;85.72;100417.13;5031021;28;20206;-64
2024/03/15 01:05:25;;;;;;;28.50;17.70;;;;;;;5.41;85.73;100413.66;5031694;28;20224;-64
2024/03/15 01:07:53;;;;;;;30.83;18.07;;;;;;;5.40;86.07;100422.19;5030982;28;20220;-64
2024/03/15 01:10:21;;;;;;;28.90;17.90;;;;;;;5.40;85.75;100419.63;5028498;28;20267;-64
2024/03/15 01:12:49;;;;;;;27.47;18.50;;;;;;;5.38;86.27;100421.31;5028989;28;20206;-64
2024/03/15 01:15:18;;;;;;;30.23;17.83;;;;;;;5.36;86.03;100418.72;5031133;28;20623;-65
2024/03/15 01:17:46;;;;;;;30.77;19.07;;;;;;;5.35;86.37;100413.59;5030150;28;20202;-63
2024/03/15 01:20:14;;;;;;;27.00;16.77;;;;;;;5.36;86.27;100415.31;5030109;28;20216;-65
2024/03/15 01:22:44;;;;;;;32.10;18.40;;;;;;;5.36;86.17;100415.31;5047325;28;20209;-64
2024/03/15 01:25:12;;;;;;;26.83;18.37;;;;;;;5.35;86.41;100419.56;5030922;28;20680;-65
2024/03/15 01:27:40;;;;;;;30.77;18.07;;;;;;;5.35;86.27;100423.81;5028566;28;20699;-68
2024/03/15 01:30:09;;;;;;;28.93;17.47;;;;;;;5.36;86.70;100415.31;5029166;28;20622;-64
2024/03/15 01:32:37;;;;;;;33.33;19.23;;;;;;;5.34;86.51;100417.84;5031361;28;20198;-65
2024/03/15 01:35:06;;;;;;;29.10;17.93;;;;;;;5.31;86.39;100413.53;5029738;28;20197;-64
2024/03/15 01:37:36;;;;;;;28.97;18.83;;;;;;;5.28;86.58;100410.94;5028426;28;20208;-65
2024/03/15 01:40:04;;;;;;;32.47;18.37;;;;;;;5.27;86.39;100413.47;5033767;28;20205;-63
2024/03/15 01:42:32;;;;;;;31.30;18.27;;;;;;;5.26;86.56;100414.28;5034805;28;20301;-64
2024/03/15 01:45:00;;;;;;;26.90;16.97;;;;;;;5.24;86.97;100413.41;5034575;28;21150;-65
2024/03/15 01:47:29;;;;;;;29.27;18.83;;;;;;;5.25;86.73;100410.88;5032762;28;20206;-64
2024/03/15 01:49:57;;;;;;;31.57;18.77;;;;;;;5.26;86.77;100419.41;5029815;28;20921;-65
2024/03/15 01:52:25;;;;;;;28.73;18.10;;;;;;;5.23;86.43;100414.25;5034797;28;20210;-65
2024/03/15 01:54:54;;;;;;;30.20;18.30;;;;;;;5.22;86.58;100415.06;5032160;28;20198;-66
2024/03/15 01:57:23;;;;;;;35.63;19.30;;;;;;;5.19;86.87;100410.78;5032995;28;20276;-64
2024/03/15 01:59:51;;;;;;;30.20;19.03;;;;;;;5.21;86.70;100413.38;5032051;28;20202;-65
2024/03/15 02:02:19;;;;;;;30.27;18.87;;;;;;;5.22;86.77;100415.06;5033413;28;20280;-67
2024/03/15 02:04:53;;;;;;;28.50;18.10;;;;;;;5.20;86.83;100412.50;5028633;28;20214;-66
2024/03/15 02:07:22;;;;;;;29.80;18.30;;;;;;;5.21;86.91;100424.44;5034267;28;20201;-62
2024/03/15 02:09:50;;;;;;;29.47;18.40;;;;;;;5.21;86.36;100424.44;5031846;28;20209;-65
2024/03/15 02:12:18;;;;;;;29.10;18.43;;;;;;;5.18;86.32;100426.09;5033355;28;20198;-66
2024/03/15 02:14:48;;;;;;;29.67;19.33;;;;;;;5.15;86.32;100426.88;5033991;28;20193;-65
2024/03/15 02:17:16;;;;;;;32.27;19.47;;;;;;;5.13;86.42;100435.38;5032945;28;20250;-64
2024/03/15 02:19:44;;;;;;;31.70;19.47;;;;;;;5.08;86.36;100436.16;5033901;28;20206;-64
2024/03/15 02:22:12;;;;;;;32.00;19.27;;;;;;;5.07;86.75;100431.88;5034323;28;20198;-65
2024/03/15 02:24:40;;;;;;;32.70;19.30;;;;;;;5.04;86.74;100433.50;5033729;28;20206;-66
2024/03/15 02:27:13;;;;;;;31.93;18.60;;;;;;;5.04;86.74;100436.94;5032057;28;20289;-64
2024/03/15 02:29:42;;;;;;;32.47;19.10;;;;;;;5.02;86.71;100436.03;5034803;28;20197;-64
2024/03/15 02:32:10;;;;;;;34.87;19.30;;;;;;;5.00;87.16;100436.84;5032633;28;20203;-63
2024/03/15 02:34:38;;;;;;;31.80;19.57;;;;;;;4.94;86.95;100427.41;5033182;28;20629;-63
2024/03/15 02:37:07;;;;;;;32.23;19.70;;;;;;;4.95;86.98;100431.66;5034006;28;20553;-64
2024/03/15 02:39:35;;;;;;;32.87;19.47;;;;;;;4.90;86.97;100419.63;5033912;28;20620;-64
2024/03/15 02:42:05;;;;;;;33.13;19.93;;;;;;;4.88;87.11;100419.63;5033017;28;20202;-64
2024/03/15 02:44:33;;;;;;;33.43;20.77;;;;;;;4.84;87.10;100421.25;5032063;28;20299;-66
2024/03/15 02:47:03;;;;;;;33.83;20.53;;;;;;;4.83;87.45;100417.00;5033010;28;20656;-68
2024/03/15 02:49:31;;;;;;;36.30;20.93;;;;;;;4.84;87.55;100421.25;5033713;28;20646;-63
2024/03/15 02:51:59;;;;;;;31.33;19.57;;;;;;;4.83;87.50;100409.34;5032906;28;20612;-64
2024/03/15 02:54:28;;;;;;;30.97;19.47;;;;;;;4.84;87.35;100415.31;5033459;28;20202;-62
2024/03/15 02:56:56;;;;;;;33.37;20.60;;;;;;;4.81;87.70;100416.09;5032813;28;20230;-62
2024/03/15 02:59:25;;;;;;;33.43;19.97;;;;;;;4.78;87.39;100421.16;5032742;28;20202;-65
2024/03/15 03:01:53;;;;;;;35.03;20.47;;;;;;;4.76;87.52;100421.97;5032938;28;20337;-64
2024/03/15 03:04:21;;;;;;;32.30;19.80;;;;;;;4.74;87.63;100416.81;5031174;28;20210;-62
2024/03/15 03:06:50;;;;;;;33.27;19.97;;;;;;;4.76;87.69;100411.75;5032015;28;20217;-64
2024/03/15 03:09:20;;;;;;;35.20;20.07;;;;;;;4.78;87.65;100421.16;5032037;28;20211;-63
2024/03/15 03:11:48;;;;;;;35.27;21.23;;;;;;;4.81;87.66;100422.91;5030861;28;20213;-63
2024/03/15 03:14:17;;;;;;;32.60;20.90;;;;;;;4.79;87.75;100412.66;5031341;28;20581;-62
2024/03/15 03:16:44;;;;;;;37.07;20.80;;;;;;;4.80;87.66;100416.94;5032640;28;20226;-64
2024/03/15 03:19:16;;;;;;;33.33;20.90;;;;;;;4.80;87.16;100409.28;5033470;28;20656;-62
2024/03/15 03:21:46;;;;;;;33.53;20.87;;;;;;;4.82;87.29;100410.19;5032139;28;20205;-66
2024/03/15 03:24:14;;;;;;;31.73;19.90;;;;;;;4.80;87.02;100414.38;5032410;28;20244;-62
2024/03/15 03:26:43;;;;;;;37.20;22.00;;;;;;;4.77;87.42;100414.31;5031500;28;20261;-63
2024/03/15 03:29:12;;;;;;;37.07;21.20;;;;;;;4.75;87.42;100421.13;5031561;28;20731;-62
2024/03/15 03:31:40;;;;;;;37.27;20.67;;;;;;;4.75;87.45;100415.13;5032173;28;20722;-64
2024/03/15 03:34:08;;;;;;;35.07;19.67;;;;;;;4.72;87.32;100412.53;5031499;28;20209;-64
2024/03/15 03:36:37;;;;;;;35.60;20.83;;;;;;;4.68;87.37;100411.63;5029388;28;20641;-65
2024/03/15 03:39:06;;;;;;;37.57;21.03;;;;;;;4.68;87.69;100418.44;5032051;28;20208;-65
2024/03/15 03:41:34;;;;;;;36.10;21.20;;;;;;;4.63;87.40;100413.22;5032113;28;20260;-62
2024/03/15 03:44:03;;;;;;;35.50;20.23;;;;;;;4.58;87.90;100410.59;5030333;28;20923;-63
2024/03/15 03:46:33;;;;;;;34.63;19.83;;;;;;;4.60;88.02;100413.16;5047269;28;20230;-64
2024/03/15 03:49:01;;;;;;;36.77;20.63;;;;;;;4.58;88.06;100414.84;5031836;28;20206;-62
2024/03/15 03:51:30;;;;;;;35.60;19.83;;;;;;;4.54;87.93;100415.59;5030063;28;20292;-63
2024/03/15 03:53:58;;;;;;;37.93;19.57;;;;;;;4.52;88.24;100414.69;5030709;28;20206;-64
2024/03/15 03:56:29;;;;;;;36.20;20.83;;;;;;;4.46;87.92;100415.47;5032586;28;20229;-65
2024/03/15 03:58:58;;;;;;;33.03;19.57;;;;;;;4.42;88.31;100416.25;5032033;28;20210;-66
2024/03/15 04:01:26;;;;;;;34.03;19.50;;;;;;;4.39;88.83;100421.28;5028468;28;20216;-64
2024/03/15 04:03:55;;;;;;;42.00;22.13;;;;;;;4.40;88.26;100432.34;5031979;28;20594;-64
2024/03/15 04:06:23;;;;;;;34.33;19.53;;;;;;;4.33;88.58;100419.44;5030812;28;20245;-66
2024/03/15 04:08:51;;;;;;;35.23;20.50;;;;;;;4.32;89.36;100434.75;5031407;28;20212;-64
2024/03/15 04:11:19;;;;;;;35.13;19.47;;;;;;;4.34;89.92;100425.41;5028757;28;20198;-65
2024/03/15 04:13:47;;;;;;;36.80;20.70;;;;;;;4.36;89.73;100426.31;5032067;28;20661;-65
2024/03/15 04:16:15;;;;;;;36.27;20.83;;;;;;;4.40;90.08;100428.09;5031626;28;20193;-66
2024/03/15 04:18:44;;;;;;;33.30;18.93;;;;;;;4.42;89.59;100425.56;5030003;28;20210;-64
2024/03/15 04:21:12;;;;;;;34.37;19.43;;;;;;;4.43;89.65;100438.38;5029938;28;20206;-65
2024/03/15 04:23:40;;;;;;;30.53;18.73;;;;;;;4.43;89.61;100427.31;5030536;28;20292;-62
2024/03/15 04:26:09;;;;;;;33.03;19.33;;;;;;;4.43;89.47;100432.41;5031422;28;20721;-64
2024/03/15 04:28:38;;;;;;;35.00;19.90;;;;;;;4.41;88.92;100431.50;5029396;28;20598;-63
2024/03/15 04:31:06;;;;;;;33.77;18.93;;;;;;;4.35;89.53;100425.47;5029767;28;20210;-65
2024/03/15 04:33:35;;;;;;;34.70;18.53;;;;;;;4.31;89.60;100428.78;5030992;28;20210;-65
2024/03/15 04:36:05;;;;;;;40.80;20.40;;;;;;;4.33;90.02;100437.31;5025217;28;20614;-64
2024/03/15 04:38:33;;;;;;;36.20;21.30;;;;;;;4.28;89.09;100438.06;5028700;28;20198;-64
2024/03/15 04:41:09;;;;;;;37.00;20.20;;;;;;;4.24;89.84;100436.28;5030135;28;20209;-63
2024/03/15 04:43:38;;;;;;;34.50;19.33;;;;;;;4.24;90.29;100442.25;5030000;28;20198;-64
2024/03/15 04:46:07;;;;;;;35.70;20.67;;;;;;;4.23;89.63;100435.41;5030629;28;20685;-62
2024/03/15 04:48:36;;;;;;;37.37;20.93;;;;;;;4.22;90.26;100438.78;5030189;28;20269;-64
2024/03/15 04:51:05;;;;;;;36.77;20.83;;;;;;;4.23;89.39;100443.06;5030624;28;20202;-62
2024/03/15 04:53:33;;;;;;;39.70;21.20;;;;;;;4.19;89.66;100442.97;5030541;28;20198;-65
2024/03/15 04:56:02;;;;;;;34.37;19.40;;;;;;;4.15;89.96;100441.19;5026300;28;21732;-63
2024/03/15 04:58:31;;;;;;;38.33;20.17;;;;;;;4.13;89.64;100443.72;5030323;28;20315;-65
2024/03/15 05:01:00;;;;;;;36.50;20.23;;;;;;;4.09;89.10;100452.13;5031599;28;20202;-64
2024/03/15 05:03:29;;;;;;;34.57;18.73;;;;;;;4.03;90.14;100444.34;5030825;28;20248;-64
2024/03/15 05:05:57;;;;;;;29.80;18.20;;;;;;;4.00;89.55;100452.78;5029961;28;20202;-64
2024/03/15 05:08:27;;;;;;;35.20;18.83;;;;;;;3.94;89.32;100449.22;5030523;28;20198;-66
2024/03/15 05:10:56;;;;;;;31.07;18.63;;;;;;;3.85;90.31;100448.22;5027158;28;20209;-63
2024/03/15 05:13:24;;;;;;;28.63;17.27;;;;;;;3.87;90.81;100450.81;5031197;28;20660;-63
2024/03/15 05:15:52;;;;;;;34.60;19.93;;;;;;;3.94;91.36;100456.88;5034095;28;20648;-64
2024/03/15 05:18:21;;;;;;;32.27;17.87;;;;;;;3.97;90.58;100452.69;5035882;28;20538;-63
2024/03/15 05:20:49;;;;;;;30.40;16.17;;;;;;;4.00;90.63;100457.03;5034742;28;20288;-64
2024/03/15 05:23:17;;;;;;;33.40;16.87;;;;;;;4.01;89.12;100464.69;5034061;28;20205;-67
2024/03/15 05:25:45;;;;;;;27.00;16.10;;;;;;;3.97;89.66;100459.50;5033979;28;20220;-64
2024/03/15 05:28:17;;;;;;;29.73;16.83;;;;;;;3.92;89.52;100456.00;5035211;28;20232;-64
2024/03/15 05:30:44;;;;;;;32.50;17.80;;;;;;;3.90;89.80;100463.59;5034258;28;20248;-64
2024/03/15 05:33:12;;;;;;;30.97;16.50;;;;;;;3.90;90.16;100460.19;5032606;28;20615;-64
2024/03/15 05:35:41;;;;;;;29.17;16.17;;;;;;;3.94;90.80;100460.31;5033321;28;20224;-63
2024/03/15 05:38:10;;;;;;;30.43;16.73;;;;;;;3.90;89.29;100461.03;5032131;28;20305;-62
2024/03/15 05:40:38;;;;;;;29.50;17.07;;;;;;;3.87;90.08;100469.50;5034830;28;20665;-65
2024/03/15 05:43:06;;;;;;;28.67;15.47;;;;;;;3.84;89.87;100474.53;5035144;28;20197;-65
2024/03/15 05:45:34;;;;;;;27.80;15.83;;;;;;;3.82;89.79;100473.63;5032653;28;20212;-64
2024/03/15 05:48:03;;;;;;;26.30;14.63;;;;;;;3.80;90.09;100466.78;5033299;28;20222;-65
2024/03/15 05:50:32;;;;;;;26.20;15.17;;;;;;;3.83;89.80;100475.38;5032688;28;20198;-64
2024/03/15 05:53:00;;;;;;;25.53;14.57;;;;;;;3.85;90.95;100467.75;5032316;28;20241;-64
2024/03/15 05:55:28;;;;;;;26.13;14.90;;;;;;;3.83;90.59;100465.16;5034473;28;20986;-64
2024/03/15 05:57:56;;;;;;;26.13;14.97;;;;;;;3.85;89.80;100470.28;5032235;28;20549;-64
2024/03/15 06:00:24;;;;;;;26.53;15.10;;;;;;;3.86;90.75;100465.22;5034186;28;20202;-66
2024/03/15 06:02:52;;;;;;;28.00;14.83;;;;;;;3.87;91.27;100466.09;5034517;28;20217;-64
2024/03/15 06:05:22;;;;;;;33.00;16.20;;;;;;;3.94;90.88;100467.97;5034066;28;20202;-65
2024/03/15 06:07:50;;;;;;;29.20;15.53;;;;;;;3.97;91.42;100467.16;5032491;28;20211;-63
2024/03/15 06:10:21;;;;;;;27.83;15.57;;;;;;;4.06;91.74;100475.00;5032164;28;20252;-64
2024/03/15 06:12:50;;;;;;;28.33;15.87;;;;;;;4.09;91.09;100470.84;5031923;28;20229;-64
2024/03/15 06:15:19;;;;;;;26.57;14.47;;;;;;;4.13;90.53;100474.31;5033799;28;20210;-63
2024/03/15 06:17:47;;;;;;;29.70;15.93;;;;;;;4.16;90.84;100473.50;5030656;28;20209;-63
2024/03/15 06:20:15;;;;;;;30.33;15.83;;;;;;;4.24;91.48;100461.78;5033709;28;20625;-63
2024/03/15 06:22:44;;;;;;;31.00;16.57;;;;;;;4.33;91.13;100473.03;5032094;28;20287;-65
2024/03/15 06:25:12;;;;;;;28.93;15.50;;;;;;;4.37;91.33;100473.94;5032450;28;20362;-62
2024/03/15 06:27:44;;;;;;;27.77;15.97;;;;;;;4.45;91.57;100472.41;5034257;28;20222;-64
2024/03/15 06:30:14;;;;;;;30.10;15.93;;;;;;;4.56;91.21;100480.28;5033073;28;20205;-63
2024/03/15 06:32:43;;;;;;;32.50;17.63;;;;;;;4.59;90.07;100467.59;5034668;28;20216;-63
2024/03/15 06:35:27;;;;;;;32.03;16.63;;;;;;;4.63;90.30;100466.81;5030427;28;20942;-64
2024/03/15 06:38:07;;;;;;;30.10;15.67;;;;;;;4.70;89.54;100467.78;5036462;28;20248;-65
2024/03/15 06:40:55;;;;;;;27.57;15.67;;;;;;;4.81;89.71;100468.84;5035318;28;20275;-64
2024/03/15 06:43:39;;;;;;;27.67;16.47;;;;;;;5.00;89.63;100470.03;5036964;28;20269;-63
2024/03/15 06:46:19;;;;;;;27.20;16.10;;;;;;;5.20;89.14;100465.31;5033315;28;20198;-65
2024/03/15 06:48:57;;;;;;;24.33;14.57;;;;;;;5.42;86.95;100461.41;5035242;28;20229;-65
2024/03/15 06:54:11;;;;;;;31.93;16.10;;;;;;;5.93;86.97;100458.78;5031973;28;20671;-65
2024/03/15 06:56:41;;;;;;;25.53;14.80;;;;;;;6.19;85.24;100458.28;5030377;28;20333;-65
2024/03/15 06:59:09;;;;;;;25.23;15.17;;;;;;;6.45;82.01;100450.94;5033609;28;20198;-65
2024/03/15 07:01:38;;;;;;;20.87;13.57;;;;;;;6.48;79.69;100456.06;5033019;28;20205;-64
2024/03/15 07:04:07;;;;;;;22.73;13.93;;;;;;;6.64;82.24;100452.84;5032632;28;20198;-65
2024/03/15 07:06:35;;;;;;;21.60;13.53;;;;;;;6.90;80.97;100452.25;5032176;28;20210;-64
2024/03/15 07:09:05;;;;;;;25.20;13.67;;;;;;;7.11;77.74;100454.19;5033048;28;20302;-63
2024/03/15 07:11:33;;;;;;;23.87;13.63;;;;;;;7.35;78.43;100458.63;5030701;28;20259;-64
2024/03/15 07:14:02;;;;;;;23.03;13.43;;;;;;;7.55;77.43;100445.97;5030768;28;20229;-65
2024/03/15 07:16:31;;;;;;;23.07;12.37;;;;;;;7.90;77.32;100453.91;5032221;28;20198;-67
2024/03/15 07:19:00;;;;;;;21.03;13.03;;;;;;;8.33;76.40;100447.28;5030384;28;20233;-67
2024/03/15 07:21:28;;;;;;;22.30;12.53;;;;;;;8.86;71.57;100450.88;5030825;28;20198;-66
2024/03/15 07:23:57;;;;;;;16.70;11.70;;;;;;;9.62;72.82;100450.91;5034139;28;20702;-65
2024/03/15 07:26:25;;;;;;;16.57;11.60;;;;;;;10.33;67.84;100441.31;5029347;28;20264;-66
2024/03/15 07:28:55;;;;;;;16.37;10.70;;;;;;;10.89;65.39;100442.72;5030727;28;20234;-66
2024/03/15 07:31:23;;;;;;;18.53;11.80;;;;;;;11.26;62.30;100431.28;5030436;28;20210;-66
2024/03/15 07:33:52;;;;;;;19.30;11.43;;;;;;;11.63;58.96;100436.13;5031724;28;20248;-68
2024/03/15 07:36:20;;;;;;;18.63;12.00;;;;;;;11.71;57.99;100431.72;5029820;28;20206;-66
2024/03/15 07:38:51;;;;;;;18.37;10.90;;;;;;;11.85;57.61;100427.31;5032059;28;20694;-67
2024/03/15 07:41:21;;;;;;;18.03;11.23;;;;;;;11.90;56.19;100422.97;5031325;28;20202;-68
2024/03/15 07:43:50;;;;;;;16.60;11.80;;;;;;;12.04;58.05;100428.84;5031115;28;20267;-67
2024/03/15 07:46:18;;;;;;;18.37;11.73;;;;;;;12.42;56.78;100431.84;5030704;28;20210;-67
2024/03/15 07:48:46;;;;;;;17.03;11.63;;;;;;;12.73;55.22;100424.50;5032515;28;20226;-66
2024/03/15 07:51:14;;;;;;;13.67;10.23;;;;;;;12.97;53.17;100424.16;5030767;28;20205;-65
2024/03/15 07:53:43;;;;;;;16.50;10.77;;;;;;;13.37;53.28;100418.38;5027376;28;20297;-65
2024/03/15 07:56:11;;;;;;;15.73;11.13;;;;;;;13.95;50.81;100422.47;5033500;28;20260;-64
2024/03/15 07:58:39;;;;;;;19.13;11.40;;;;;;;14.31;48.40;100422.63;5033223;28;20673;-65
2024/03/15 08:01:08;;;;;;;15.48;10.32;;;;;;;14.92;48.24;100423.91;5035571;28;20680;-66
2024/03/15 08:03:37;;;;;;;13.75;9.82;;;;;;;15.44;45.51;100424.38;5030057;28;20544;-66
2024/03/15 08:06:06;;;;;;;13.75;10.65;;;;;;;15.72;44.46;100416.72;5030843;28;20210;-67
2024/03/15 08:08:34;;;;;;;17.10;10.32;;;;;;;15.62;45.17;100420.44;5025313;28;20777;-68
2024/03/15 08:11:03;;;;;;;13.45;9.95;;;;;;;16.04;45.50;100412.41;5026557;28;20199;-67
2024/03/15 08:13:37;;;;;;;13.32;9.43;;;;;;;16.09;43.24;100408.78;5030303;28;20232;-68
2024/03/15 08:16:19;;;;;;;13.35;10.50;;;;;;;15.99;42.44;100403.91;5030146;28;20248;-67
2024/03/15 08:18:48;;;;;;;13.75;9.85;;;;;;;16.06;43.16;100403.69;5034153;28;20692;-66
2024/03/15 08:21:17;;;;;;;14.73;10.20;;;;;;;15.63;42.94;100410.00;5031080;28;20202;-66
2024/03/15 08:23:45;;;;;;;13.15;9.98;;;;;;;15.11;43.76;100408.75;5027790;28;20205;-69
2024/03/15 08:26:14;;;;;;;13.80;10.02;;;;;;;14.75;45.46;100410.47;5028649;28;20209;-67
2024/03/15 08:28:42;;;;;;;15.63;10.97;;;;;;;14.52;46.34;100416.16;5028811;28;20221;-67
2024/03/15 08:31:10;;;;;;;15.10;10.63;;;;;;;14.40;47.14;100408.63;5032251;28;20852;-67
2024/03/15 08:33:38;;;;;;;13.97;10.00;;;;;;;14.32;46.14;100416.53;5027702;28;20194;-68
2024/03/15 08:36:07;;;;;;;13.80;9.23;;;;;;;14.15;47.25;100416.06;5026620;28;20269;-65
2024/03/15 08:38:36;;;;;;;12.97;9.30;;;;;;;13.93;47.76;100413.88;5043515;28;20202;-65
2024/03/15 08:41:05;;;;;;;14.30;9.97;;;;;;;13.75;47.28;100416.81;5028327;28;20217;-65
2024/03/15 08:43:34;;;;;;;19.00;9.47;;;;;;;13.57;48.13;100420.59;5029279;28;20252;-67
2024/03/15 08:46:04;;;;;;;13.63;9.30;;;;;;;13.38;49.16;100414.91;5029433;28;20209;-67
2024/03/15 08:48:32;;;;;;;15.10;9.23;;;;;;;13.29;49.35;100415.03;5028908;28;20213;-64
2024/03/15 08:51:03;;;;;;;14.37;9.20;;;;;;;13.27;49.29;100414.22;5031396;28;20210;-67
2024/03/15 08:53:32;;;;;;;12.07;8.80;;;;;;;13.26;49.97;100415.09;5027886;28;20209;-66
2024/03/15 08:56:00;;;;;;;13.17;9.70;;;;;;;13.33;49.58;100424.47;5027552;28;20275;-64
2024/03/15 08:58:28;;;;;;;13.07;9.37;;;;;;;13.21;48.48;100422.03;5012699;28;20214;-67
2024/03/15 09:00:57;;;;;;;14.43;9.70;;;;;;;13.01;49.66;100415.47;5031340;28;20210;-65
2024/03/15 09:03:25;;;;;;;12.77;8.27;;;;;;;12.90;50.17;100417.34;5028777;28;20307;-66
2024/03/15 09:05:54;;;;;;;11.47;8.60;;;;;;;12.99;50.59;100416.34;5031312;28;20206;-63
2024/03/15 09:08:22;;;;;;;12.90;9.40;;;;;;;13.02;50.13;100411.13;5031489;28;20213;-65
2024/03/15 09:10:50;;;;;;;10.87;7.93;;;;;;;12.90;49.95;100417.34;5039849;28;20611;-65
2024/03/15 09:13:19;;;;;;;14.00;8.63;;;;;;;12.80;50.75;100415.78;5028663;28;20203;-70
2024/03/15 09:15:48;;;;;;;13.23;9.03;;;;;;;12.74;50.96;100419.31;5030708;28;20283;-68
2024/03/15 09:18:18;;;;;;;12.47;9.37;;;;;;;12.66;50.61;100412.53;5032950;28;20622;-66
2024/03/15 09:20:47;;;;;;;12.80;9.40;;;;;;;12.70;51.08;100419.38;5032873;28;20252;-67
2024/03/15 09:23:15;;;;;;;12.33;9.10;;;;;;;12.82;51.03;100419.22;5032053;28;20559;-67
2024/03/15 09:25:44;;;;;;;12.17;9.30;;;;;;;12.84;50.94;100417.44;5031553;28;20599;-68
2024/03/15 09:28:12;;;;;;;13.53;8.80;;;;;;;12.81;50.15;100412.31;5032815;28;20209;-65
2024/03/15 09:30:49;;;;;;;12.67;8.70;;;;;;;12.69;51.14;100407.31;5033214;28;20220;-65
2024/03/15 09:33:34;;;;;;;12.03;8.97;;;;;;;12.63;51.74;100408.28;5030982;28;20297;-69
2024/03/15 09:36:04;;;;;;;14.77;9.07;;;;;;;12.43;51.90;100405.09;5032913;28;20202;-67
2024/03/15 09:38:33;;;;;;;13.43;9.13;;;;;;;12.29;52.23;100408.72;5033208;28;20645;-67
2024/03/15 09:41:05;;;;;;;11.87;8.30;;;;;;;12.19;51.80;100406.28;5029824;28;20233;-65
2024/03/15 09:43:34;;;;;;;12.90;9.17;;;;;;;12.08;52.78;100409.00;5031641;28;20203;-65
2024/03/15 09:46:02;;;;;;;12.40;8.87;;;;;;;12.00;53.24;100405.63;5033074;28;20213;-67
2024/03/15 09:48:31;;;;;;;16.57;9.10;;;;;;;11.93;53.12;100404.88;5028969;28;20242;-65
2024/03/15 09:51:03;;;;;;;12.77;8.33;;;;;;;11.96;53.59;100401.38;5028527;28;20202;-63
2024/03/15 09:53:32;;;;;;;11.70;7.97;;;;;;;11.98;53.44;100397.06;5029343;28;20696;-63
2024/03/15 09:56:01;;;;;;;11.57;7.47;;;;;;;12.12;53.78;100404.66;5030826;28;20760;-64
2024/03/15 09:58:30;;;;;;;13.10;8.50;;;;;;;12.20;52.70;100398.50;5032086;28;20199;-63
2024/03/15 10:00:58;;;;;;;11.57;8.43;;;;;;;12.19;52.39;100398.53;5035413;28;20661;-63
2024/03/15 10:03:27;;;;;;;13.13;8.83;;;;;;;12.21;53.55;100399.34;5033911;28;20229;-63
2024/03/15 10:05:55;;;;;;;11.63;8.43;;;;;;;12.22;52.73;100393.31;5034850;28;20708;-64
2024/03/15 10:08:27;;;;;;;12.00;8.40;;;;;;;12.33;52.57;100391.44;5033528;28;20206;-64
2024/03/15 10:10:56;;;;;;;11.87;7.80;;;;;;;12.16;51.91;100383.06;5033805;28;20211;-65
2024/03/15 10:13:24;;;;;;;12.37;8.13;;;;;;;11.97;52.45;100385.03;5035661;28;20214;-64
2024/03/15 10:15:52;;;;;;;14.93;8.47;;;;;;;11.84;53.13;100390.31;5033364;28;20668;-64
2024/03/15 10:18:20;;;;;;;10.90;7.80;;;;;;;11.82;53.08;100397.22;5033296;28;20674;-63
2024/03/15 10:20:49;;;;;;;12.43;8.13;;;;;;;11.77;53.61;100391.22;5032895;28;20657;-64
2024/03/15 10:23:17;;;;;;;13.70;8.77;;;;;;;11.80;53.48;100387.75;5028657;28;20708;-63
2024/03/15 10:25:45;;;;;;;9.90;8.00;;;;;;;11.97;53.32;100388.47;5033721;28;20210;-64
2024/03/15 10:28:19;;;;;;;10.97;7.73;;;;;;;12.10;52.74;100386.56;5031855;28;20768;-63
2024/03/15 10:30:49;;;;;;;13.53;9.23;;;;;;;12.12;53.38;100379.69;5034322;28;20744;-63
2024/03/15 10:33:17;;;;;;;14.00;9.50;;;;;;;12.07;53.64;100374.53;5033257;28;20214;-65
2024/03/15 10:35:45;;;;;;;12.27;8.80;;;;;;;12.08;53.95;100378.84;5034486;28;21691;-64
2024/03/15 10:38:14;;;;;;;15.53;8.90;;;;;;;11.97;54.29;100375.56;5031597;28;20221;-64
2024/03/15 10:40:43;;;;;;;15.97;9.03;;;;;;;11.90;54.22;100373.91;5034335;28;20202;-64
2024/03/15 10:43:11;;;;;;;13.13;8.90;;;;;;;11.93;55.09;100373.88;5031702;28;20207;-62
2024/03/15 10:45:41;;;;;;;15.67;9.97;;;;;;;11.98;54.64;100372.09;5031941;28;20304;-63
2024/03/15 10:48:09;;;;;;;13.67;9.40;;;;;;;11.83;54.59;100367.97;5030283;28;20676;-63
2024/03/15 10:50:37;;;;;;;13.50;9.23;;;;;;;11.51;55.25;100370.00;5035385;28;20787;-64
2024/03/15 10:53:06;;;;;;;14.30;9.80;;;;;;;11.35;55.55;100371.88;5026995;28;20203;-65
2024/03/15 10:55:34;;;;;;;13.30;9.73;;;;;;;11.38;56.54;100374.44;5030353;28;20237;-64
2024/03/15 10:58:04;;;;;;;14.03;9.37;;;;;;;11.55;56.39;100367.38;5033261;28;20205;-64
2024/03/15 11:00:32;;;;;;;15.63;10.13;;;;;;;11.69;55.62;100358.63;5036984;28;20284;-65
2024/03/15 11:03:11;;;;;;;12.47;8.90;;;;;;;11.83;55.03;100359.34;5033279;28;20221;-65
2024/03/15 11:05:39;;;;;;;12.87;9.83;;;;;;;11.79;54.41;100355.94;5032997;28;20202;-65
2024/03/15 11:08:08;;;;;;;14.90;10.07;;;;;;;11.62;54.98;100363.00;5034735;28;20741;-65
2024/03/15 11:10:36;;;;;;;16.77;10.10;;;;;;;11.55;55.69;100357.03;5032803;28;20230;-66
2024/03/15 11:13:04;;;;;;;13.97;9.73;;;;;;;11.58;55.53;100353.59;5031016;28;20210;-63
2024/03/15 11:15:33;;;;;;;14.40;9.17;;;;;;;11.61;55.75;100354.41;5030016;28;20635;-63
2024/03/15 11:18:02;;;;;;;14.73;9.90;;;;;;;11.69;55.49;100356.06;5033595;28;20202;-62
2024/03/15 11:20:43;;;;;;;15.03;10.63;;;;;;;11.72;54.70;100349.13;5030157;28;20280;-64
2024/03/15 11:23:12;;;;;;;16.70;10.20;;;;;;;11.49;55.41;100346.81;5030639;28;20537;-63
2024/03/15 11:25:42;;;;;;;14.23;10.43;;;;;;;11.39;55.75;100347.75;5029229;28;20210;-64
2024/03/15 11:28:10;;;;;;;16.97;10.07;;;;;;;11.20;57.00;100344.50;5032629;28;20642;-63